createdAt,value
2023-04-29T00:00:00.657Z,87.8
2023-04-29T00:01:00.569Z,88.2
2023-04-29T00:02:00.552Z,88.5
2023-04-29T00:03:00.727Z,88.5
2023-04-29T00:04:00.748Z,88.5
2023-04-29T00:05:01.126Z,88.5
2023-04-29T00:06:00.750Z,88.5
2023-04-29T00:07:00.508Z,89.1
2023-04-29T00:08:00.553Z,88.8
2023-04-29T00:09:00.618Z,88.8
2023-04-29T00:10:00.657Z,88.8
2023-04-29T00:11:00.552Z,88.5
2023-04-29T00:12:00.514Z,88.8
2023-04-29T00:13:00.503Z,88.8
2023-04-29T00:14:00.559Z,88.5
2023-04-29T00:15:00.602Z,88.5
2023-04-29T00:16:00.533Z,88.8
2023-04-29T00:17:00.508Z,89.1
2023-04-29T00:18:00.610Z,88.8
2023-04-29T00:19:00.531Z,89.1
2023-04-29T00:20:00.577Z,88.8
2023-04-29T00:21:00.556Z,89.1
2023-04-29T00:22:00.595Z,89.1
2023-04-29T00:23:00.550Z,89.1
2023-04-29T00:24:00.544Z,89.4
2023-04-29T00:25:00.538Z,89.7
2023-04-29T00:26:00.515Z,89.7
2023-04-29T00:27:00.553Z,89.4
2023-04-29T00:28:00.513Z,89.4
2023-04-29T00:29:00.539Z,89.1
2023-04-29T00:30:00.655Z,89.1
2023-04-29T00:31:00.674Z,89.1
2023-04-29T00:32:00.532Z,89.4
2023-04-29T00:33:00.681Z,89.4
2023-04-29T00:34:00.525Z,89.7
2023-04-29T00:35:00.573Z,89.7
2023-04-29T00:36:00.556Z,89.4
2023-04-29T00:37:00.566Z,89.4
2023-04-29T00:38:00.529Z,89.4
2023-04-29T00:39:00.537Z,89.4
2023-04-29T00:40:00.577Z,89.1
2023-04-29T00:41:00.556Z,89.1
2023-04-29T00:42:00.537Z,89.1
2023-04-29T00:43:00.518Z,89.1
2023-04-29T00:44:00.523Z,89.1
2023-04-29T00:45:00.584Z,89.1
2023-04-29T00:46:00.550Z,88.8
2023-04-29T00:47:00.526Z,88.4
2023-04-29T00:48:00.604Z,88.8
2023-04-29T00:49:00.555Z,89.1
2023-04-29T00:50:00.570Z,89.1
2023-04-29T00:51:00.550Z,88.5
2023-04-29T00:52:00.592Z,88.5
2023-04-29T00:53:00.534Z,88.5
2023-04-29T00:54:00.545Z,88.5
2023-04-29T00:55:00.622Z,88.4
2023-04-29T00:56:00.546Z,88.4
2023-04-29T00:57:00.545Z,88.1
2023-04-29T00:58:00.548Z,88.1
2023-04-29T00:59:00.564Z,88.1
2023-04-29T01:00:00.604Z,88.1
2023-04-29T01:01:00.716Z,88.5
2023-04-29T01:02:00.879Z,88.4
2023-04-29T01:03:00.634Z,88.4
2023-04-29T01:04:00.860Z,88.5
2023-04-29T01:05:00.592Z,88.1
2023-04-29T01:06:00.617Z,87.8
2023-04-29T01:07:00.556Z,87.8
2023-04-29T01:08:00.585Z,87.8
2023-04-29T01:09:00.563Z,87.8
2023-04-29T01:10:00.652Z,88.1
2023-04-29T01:11:00.563Z,88.1
2023-04-29T01:12:00.586Z,88.4
2023-04-29T01:13:00.564Z,88.4
2023-04-29T01:14:00.565Z,88.4
2023-04-29T01:15:00.605Z,88.4
2023-04-29T01:16:00.615Z,88.4
2023-04-29T01:17:00.604Z,88.1
2023-04-29T01:18:00.576Z,88.4
2023-04-29T01:19:00.571Z,88.4
2023-04-29T01:20:00.634Z,88.1
2023-04-29T01:21:00.563Z,88.1
2023-04-29T01:22:00.566Z,87.8
2023-04-29T01:23:00.574Z,87.8
2023-04-29T01:24:00.614Z,87.8
2023-04-29T01:25:00.701Z,87.5
2023-04-29T01:26:00.584Z,87.5
2023-04-29T01:27:00.596Z,87.1
2023-04-29T01:28:00.596Z,87.1
2023-04-29T01:29:00.603Z,87.1
2023-04-29T01:30:00.651Z,87.2
2023-04-29T01:31:00.628Z,87.8
2023-04-29T01:32:00.592Z,87.1
2023-04-29T01:33:00.826Z,87.2
2023-04-29T01:34:00.595Z,87.2
2023-04-29T01:35:00.612Z,87.2
2023-04-29T01:36:01.636Z,87.1
2023-04-29T01:37:00.608Z,87.1
2023-04-29T01:38:00.669Z,87.1
2023-04-29T01:39:00.589Z,87.1
2023-04-29T01:40:00.713Z,87.1
2023-04-29T01:41:00.620Z,87.1
2023-04-29T01:42:00.680Z,87.8
2023-04-29T01:43:00.630Z,87.4
2023-04-29T01:44:00.593Z,87.1
2023-04-29T01:45:00.643Z,87.1
2023-04-29T01:46:00.598Z,87.1
2023-04-29T01:47:00.640Z,87.1
2023-04-29T01:48:00.660Z,87.1
2023-04-29T01:49:00.631Z,87.1
2023-04-29T01:50:00.702Z,87.1
2023-04-29T01:51:00.622Z,87.1
2023-04-29T01:52:00.603Z,87.1
2023-04-29T01:53:00.628Z,87.1
2023-04-29T01:54:00.609Z,87.4
2023-04-29T01:55:00.692Z,87.1
2023-04-29T01:56:00.624Z,87.1
2023-04-29T01:57:00.652Z,87.1
2023-04-29T01:58:00.612Z,87.1
2023-04-29T01:59:00.613Z,87.1
2023-04-29T02:00:04.400Z,87.1
2023-04-29T02:01:01.759Z,87.1
2023-04-29T02:02:01.663Z,86.8
2023-04-29T02:03:01.770Z,87.1
2023-04-29T02:04:01.896Z,87.1
2023-04-29T02:05:01.959Z,87.1
2023-04-29T02:06:01.698Z,87.1
2023-04-29T02:07:01.663Z,87.1
2023-04-29T02:08:01.663Z,86.8
2023-04-29T02:09:01.671Z,86.8
2023-04-29T02:10:01.837Z,86.4
2023-04-29T02:11:01.711Z,86.5
2023-04-29T02:12:01.715Z,86.5
2023-04-29T02:13:01.746Z,86.5
2023-04-29T02:14:01.701Z,86.4
2023-04-29T02:15:01.725Z,86.4
2023-04-29T02:16:01.738Z,86.4
2023-04-29T02:17:01.698Z,86.4
2023-04-29T02:18:01.802Z,86.4
2023-04-29T02:19:01.692Z,86.4
2023-04-29T02:20:01.809Z,86.4
2023-04-29T02:21:01.706Z,86.4
2023-04-29T02:22:01.685Z,86.4
2023-04-29T02:23:01.718Z,86.4
2023-04-29T02:24:01.692Z,86.4
2023-04-29T02:25:01.707Z,86.4
2023-04-29T02:26:01.712Z,86.4
2023-04-29T02:27:01.696Z,86.4
2023-04-29T02:28:01.692Z,86.4
2023-04-29T02:29:01.706Z,86.4
2023-04-29T02:30:01.958Z,86.4
2023-04-29T02:31:01.757Z,87
2023-04-29T02:32:01.793Z,87
2023-04-29T02:33:01.784Z,86.7
2023-04-29T02:34:01.727Z,86.7
2023-04-29T02:35:01.864Z,86.4
2023-04-29T02:36:01.728Z,86.4
2023-04-29T02:37:01.796Z,86.4
2023-04-29T02:38:01.698Z,86.4
2023-04-29T02:39:01.719Z,86.4
2023-04-29T02:40:01.821Z,86.4
2023-04-29T02:41:01.731Z,86.4
2023-04-29T02:42:01.710Z,86.7
2023-04-29T02:43:01.705Z,86.7
2023-04-29T02:44:01.729Z,86.7
2023-04-29T02:45:01.724Z,86.4
2023-04-29T02:46:01.741Z,87
2023-04-29T02:47:01.708Z,87
2023-04-29T02:48:01.773Z,87.3
2023-04-29T02:49:01.727Z,87.3
2023-04-29T02:50:01.804Z,86.9
2023-04-29T02:51:01.717Z,87.6
2023-04-29T02:52:01.731Z,87.6
2023-04-29T02:53:01.720Z,87.6
2023-04-29T02:54:01.714Z,87.6
2023-04-29T02:55:01.741Z,87.5
2023-04-29T02:56:01.738Z,87.9
2023-04-29T02:57:01.722Z,87.9
2023-04-29T02:58:01.745Z,87.9
2023-04-29T02:59:01.752Z,87.9
2023-04-29T03:00:02.802Z,88.2
2023-04-29T03:01:01.747Z,88.2
2023-04-29T03:02:01.789Z,88.1
2023-04-29T03:03:02.041Z,88.1
2023-04-29T03:04:01.976Z,88.1
2023-04-29T03:05:01.775Z,88.1
2023-04-29T03:06:01.782Z,88.1
2023-04-29T03:07:01.760Z,88.1
2023-04-29T03:08:01.742Z,88.1
2023-04-29T03:09:01.819Z,87.8
2023-04-29T03:10:01.941Z,88.1
2023-04-29T03:11:01.748Z,88.1
2023-04-29T03:12:01.761Z,88.1
2023-04-29T03:13:01.767Z,87.8
2023-04-29T03:14:01.742Z,87.5
2023-04-29T03:15:01.756Z,87.5
2023-04-29T03:16:01.886Z,87.5
2023-04-29T03:17:01.850Z,87.5
2023-04-29T03:18:01.865Z,87.5
2023-04-29T03:19:01.747Z,87.4
2023-04-29T03:20:02.388Z,87.5
2023-04-29T03:21:01.759Z,87.4
2023-04-29T03:22:01.790Z,87.4
2023-04-29T03:23:01.811Z,87.4
2023-04-29T03:24:01.820Z,87.4
2023-04-29T03:25:01.803Z,87.5
2023-04-29T03:26:01.823Z,87.4
2023-04-29T03:27:01.826Z,87.4
2023-04-29T03:28:01.841Z,86.8
2023-04-29T03:29:01.780Z,87.1
2023-04-29T03:30:01.989Z,87.4
2023-04-29T03:31:01.850Z,87.4
2023-04-29T03:32:01.889Z,87.1
2023-04-29T03:33:01.884Z,87.4
2023-04-29T03:34:01.945Z,87.4
2023-04-29T03:35:01.883Z,87.4
2023-04-29T03:36:01.881Z,87.4
2023-04-29T03:37:03.536Z,87.1
2023-04-29T03:38:01.793Z,87.4
2023-04-29T03:39:01.818Z,87.4
2023-04-29T03:40:02.162Z,87.4
2023-04-29T03:41:01.875Z,87.4
2023-04-29T03:42:01.794Z,87.4
2023-04-29T03:43:01.782Z,87.4
2023-04-29T03:44:01.832Z,87.4
2023-04-29T03:45:01.900Z,87.4
2023-04-29T03:46:01.944Z,87.4
2023-04-29T03:47:01.854Z,87.4
2023-04-29T03:48:01.955Z,87.4
2023-04-29T03:49:01.838Z,87.7
2023-04-29T03:50:01.919Z,87.7
2023-04-29T03:51:01.800Z,87.7
2023-04-29T03:52:01.852Z,88
2023-04-29T03:53:01.817Z,88
2023-04-29T03:54:01.772Z,88
2023-04-29T03:55:01.897Z,88
2023-04-29T03:56:01.859Z,88
2023-04-29T03:57:01.808Z,88
2023-04-29T03:58:01.770Z,88
2023-04-29T03:59:01.798Z,88.4
2023-04-29T04:00:02.589Z,88.4
2023-04-29T04:01:01.847Z,88.7
2023-04-29T04:02:01.889Z,88.7
2023-04-29T04:03:05.012Z,89
2023-04-29T04:04:02.019Z,89
2023-04-29T04:05:01.910Z,89
2023-04-29T04:06:01.876Z,89
2023-04-29T04:07:01.840Z,89
2023-04-29T04:08:01.863Z,89
2023-04-29T04:09:01.809Z,89.3
2023-04-29T04:10:02.025Z,89.3
2023-04-29T04:11:01.944Z,89.3
2023-04-29T04:12:01.820Z,89.3
2023-04-29T04:13:01.822Z,89.6
2023-04-29T04:14:01.834Z,89.6
2023-04-29T04:15:01.856Z,90.9
2023-04-29T04:16:01.881Z,91.2
2023-04-29T04:17:01.925Z,91.2
2023-04-29T04:18:01.882Z,91.2
2023-04-29T04:19:01.819Z,91.5
2023-04-29T04:20:01.941Z,91.9
2023-04-29T04:21:01.828Z,91.2
2023-04-29T04:22:02.728Z,91.2
2023-04-29T04:23:01.835Z,91.2
2023-04-29T04:24:01.853Z,91.3
2023-04-29T04:25:01.848Z,90.9
2023-04-29T04:26:01.834Z,90.9
2023-04-29T04:27:01.859Z,91.3
2023-04-29T04:28:01.841Z,91.6
2023-04-29T04:29:01.883Z,91.3
2023-04-29T04:30:01.972Z,91.6
2023-04-29T04:31:01.927Z,91.3
2023-04-29T04:32:01.933Z,91.3
2023-04-29T04:33:01.891Z,90.7
2023-04-29T04:34:01.850Z,91
2023-04-29T04:35:01.939Z,91.3
2023-04-29T04:36:01.877Z,91
2023-04-29T04:37:01.850Z,91.3
2023-04-29T04:38:01.879Z,91.3
2023-04-29T04:39:01.916Z,91.6
2023-04-29T04:40:01.946Z,91.6
2023-04-29T04:41:01.912Z,91.6
2023-04-29T04:42:01.924Z,91.6
2023-04-29T04:43:01.915Z,91.6
2023-04-29T04:44:01.863Z,92
2023-04-29T04:45:01.900Z,91.9
2023-04-29T04:46:01.973Z,91.9
2023-04-29T04:47:01.896Z,92
2023-04-29T04:48:01.932Z,92
2023-04-29T04:49:01.850Z,91.9
2023-04-29T04:50:01.963Z,92
2023-04-29T04:51:01.941Z,92
2023-04-29T04:52:01.836Z,91.7
2023-04-29T04:53:01.927Z,91.7
2023-04-29T04:54:01.865Z,91.7
2023-04-29T04:55:01.940Z,92
2023-04-29T04:56:01.834Z,92
2023-04-29T04:57:01.855Z,91.7
2023-04-29T04:58:01.868Z,92
2023-04-29T04:59:01.862Z,92
2023-04-29T05:00:02.475Z,92
2023-04-29T05:01:01.874Z,92
2023-04-29T05:02:01.897Z,92
2023-04-29T05:03:02.111Z,91.7
2023-04-29T05:04:02.054Z,91.4
2023-04-29T05:05:01.918Z,91.4
2023-04-29T05:06:02.090Z,91.4
2023-04-29T05:07:01.864Z,91.4
2023-04-29T05:08:01.846Z,91.4
2023-04-29T05:09:01.881Z,91.4
2023-04-29T05:10:01.973Z,91.4
2023-04-29T05:11:01.854Z,91.4
2023-04-29T05:12:01.871Z,91.4
2023-04-29T05:13:01.878Z,91.4
2023-04-29T05:14:01.906Z,91.4
2023-04-29T05:15:01.979Z,91.4
2023-04-29T05:16:02.538Z,91.1
2023-04-29T05:17:01.926Z,91.1
2023-04-29T05:18:02.168Z,90.8
2023-04-29T05:19:01.850Z,91.1
2023-04-29T05:20:01.916Z,91.1
2023-04-29T05:21:01.862Z,91.1
2023-04-29T05:22:01.898Z,90.8
2023-04-29T05:23:01.978Z,90.8
2023-04-29T05:24:01.885Z,90.8
2023-04-29T05:25:01.870Z,91.1
2023-04-29T05:26:01.868Z,91.1
2023-04-29T05:27:01.869Z,90.8
2023-04-29T05:28:01.863Z,90.8
2023-04-29T05:29:01.883Z,90.8
2023-04-29T05:30:02.014Z,90.8
2023-04-29T05:31:01.898Z,90.8
2023-04-29T05:32:01.859Z,90.8
2023-04-29T05:33:02.006Z,91.1
2023-04-29T05:34:01.921Z,90.8
2023-04-29T05:35:01.881Z,90.8
2023-04-29T05:36:01.871Z,90.5
2023-04-29T05:37:01.881Z,90.2
2023-04-29T05:38:02.023Z,90.2
2023-04-29T05:39:01.888Z,90.2
2023-04-29T05:40:01.987Z,89.9
2023-04-29T05:41:01.884Z,90.2
2023-04-29T05:42:01.916Z,90.2
2023-04-29T05:43:01.884Z,89.6
2023-04-29T05:44:01.886Z,89.6
2023-04-29T05:45:03.154Z,89.6
2023-04-29T05:46:01.906Z,89.6
2023-04-29T05:47:01.877Z,89.6
2023-04-29T05:48:01.984Z,89.3
2023-04-29T05:49:00.554Z,89.3
2023-04-29T05:50:00.535Z,89.6
2023-04-29T05:51:00.530Z,89.3
2023-04-29T05:52:00.534Z,89
2023-04-29T05:53:00.526Z,89
2023-04-29T05:54:00.553Z,89.3
2023-04-29T05:55:00.529Z,89
2023-04-29T05:56:00.568Z,89
2023-04-29T05:57:00.556Z,89
2023-04-29T05:58:00.536Z,89
2023-04-29T05:59:00.543Z,88.7
2023-04-29T06:00:00.550Z,88.7
2023-04-29T06:01:00.532Z,89
2023-04-29T06:02:00.597Z,88.7
2023-04-29T06:03:00.675Z,88.7
2023-04-29T06:04:00.863Z,89
2023-04-29T06:05:01.003Z,89
2023-04-29T06:06:00.706Z,89
2023-04-29T06:07:00.553Z,88.7
2023-04-29T06:08:00.555Z,89
2023-04-29T06:09:00.617Z,88.7
2023-04-29T06:10:00.638Z,88.7
2023-04-29T06:11:00.557Z,88.4
2023-04-29T06:12:00.557Z,88.4
2023-04-29T06:13:00.557Z,88.4
2023-04-29T06:14:00.580Z,88.4
2023-04-29T06:15:00.558Z,88.4
2023-04-29T06:16:00.601Z,88.1
2023-04-29T06:17:00.589Z,88.1
2023-04-29T06:18:00.614Z,87.8
2023-04-29T06:19:00.585Z,87.8
2023-04-29T06:20:00.580Z,87.8
2023-04-29T06:21:00.568Z,87.8
2023-04-29T06:22:00.557Z,87.5
2023-04-29T06:23:00.599Z,87.2
2023-04-29T06:24:00.585Z,87.8
2023-04-29T06:25:00.600Z,87.8
2023-04-29T06:26:00.564Z,87.8
2023-04-29T06:27:00.572Z,87.5
2023-04-29T06:28:00.579Z,87.2
2023-04-29T06:29:00.577Z,86.9
2023-04-29T06:30:00.571Z,86.9
2023-04-29T06:31:00.924Z,86.6
2023-04-29T06:32:00.730Z,86.3
2023-04-29T06:33:00.651Z,86.3
2023-04-29T06:34:01.205Z,86.3
2023-04-29T06:35:00.676Z,86.6
2023-04-29T06:36:00.581Z,86.3
2023-04-29T06:37:00.634Z,86.6
2023-04-29T06:38:00.788Z,86.3
2023-04-29T06:39:00.846Z,86.7
2023-04-29T06:40:00.607Z,86
2023-04-29T06:41:00.713Z,85.4
2023-04-29T06:42:00.598Z,85.4
2023-04-29T06:43:00.678Z,85.4
2023-04-29T06:44:00.610Z,85.4
2023-04-29T06:45:00.587Z,85.4
2023-04-29T06:46:00.607Z,85.4
2023-04-29T06:47:00.691Z,85.4
2023-04-29T06:48:00.714Z,85.7
2023-04-29T06:49:00.590Z,86
2023-04-29T06:50:00.609Z,86
2023-04-29T06:51:00.622Z,86
2023-04-29T06:52:00.597Z,86
2023-04-29T06:53:00.594Z,86
2023-04-29T06:54:00.599Z,85.4
2023-04-29T06:55:00.598Z,85.8
2023-04-29T06:56:00.602Z,85.4
2023-04-29T06:57:00.623Z,85.5
2023-04-29T06:58:00.596Z,85.1
2023-04-29T06:59:00.661Z,84.2
2023-04-29T07:00:00.634Z,83.5
2023-04-29T07:01:00.649Z,83.6
2023-04-29T07:02:00.611Z,83.8
2023-04-29T07:03:00.831Z,84.2
2023-04-29T07:04:00.768Z,84.2
2023-04-29T07:05:00.635Z,84.2
2023-04-29T07:06:00.612Z,83.9
2023-04-29T07:07:00.625Z,84.2
2023-04-29T07:08:00.675Z,84.8
2023-04-29T07:09:00.740Z,84.8
2023-04-29T07:10:00.732Z,84.5
2023-04-29T07:11:00.637Z,83.6
2023-04-29T07:12:00.861Z,83.6
2023-04-29T07:13:00.627Z,84
2023-04-29T07:14:00.910Z,83.4
2023-04-29T07:15:00.786Z,83.1
2023-04-29T07:16:00.651Z,83.1
2023-04-29T07:17:00.728Z,81.8
2023-04-29T07:18:00.698Z,81.2
2023-04-29T07:19:00.637Z,81.2
2023-04-29T07:20:00.774Z,81.2
2023-04-29T07:21:00.629Z,81.8
2023-04-29T07:22:00.623Z,81.8
2023-04-29T07:23:00.671Z,80.5
2023-04-29T07:24:00.646Z,81.2
2023-04-29T07:25:00.643Z,80.6
2023-04-29T07:26:00.667Z,80.2
2023-04-29T07:27:00.805Z,80.5
2023-04-29T07:28:00.637Z,80.6
2023-04-29T07:29:00.647Z,80.5
2023-04-29T07:30:00.816Z,80.6
2023-04-29T07:31:00.772Z,80.6
2023-04-29T07:32:00.659Z,80.9
2023-04-29T07:33:00.706Z,80.6
2023-04-29T07:34:00.651Z,80.6
2023-04-29T07:35:00.677Z,80.3
2023-04-29T07:36:00.750Z,80.6
2023-04-29T07:37:00.659Z,80.9
2023-04-29T07:38:00.650Z,80.6
2023-04-29T07:39:00.870Z,80.6
2023-04-29T07:40:00.848Z,80.6
2023-04-29T07:41:00.808Z,80
2023-04-29T07:42:00.661Z,80.6
2023-04-29T07:43:01.414Z,80.7
2023-04-29T07:44:01.138Z,80.7
2023-04-29T07:45:00.647Z,80.4
2023-04-29T07:46:00.695Z,80.1
2023-04-29T07:47:00.659Z,80.1
2023-04-29T07:48:00.680Z,78.8
2023-04-29T07:49:00.658Z,77.5
2023-04-29T07:50:01.019Z,77.5
2023-04-29T07:51:00.707Z,77.2
2023-04-29T07:52:00.747Z,77.5
2023-04-29T07:53:00.658Z,78.1
2023-04-29T07:54:00.669Z,78.2
2023-04-29T07:55:00.685Z,79.1
2023-04-29T07:56:00.664Z,79.4
2023-04-29T07:57:00.662Z,78.8
2023-04-29T07:58:00.786Z,78.8
2023-04-29T07:59:00.662Z,79.5
2023-04-29T08:00:00.824Z,78.6
2023-04-29T08:01:00.660Z,78.9
2023-04-29T08:02:00.675Z,76.4
2023-04-29T08:03:00.799Z,78.3
2023-04-29T08:04:00.847Z,77.7
2023-04-29T08:05:01.087Z,75.2
2023-04-29T08:06:00.763Z,76.4
2023-04-29T08:07:00.693Z,75.8
2023-04-29T08:08:00.776Z,74.2
2023-04-29T08:09:02.109Z,72.6
2023-04-29T08:10:00.939Z,73
2023-04-29T08:11:00.707Z,73.3
2023-04-29T08:12:00.686Z,72
2023-04-29T08:13:00.689Z,72.3
2023-04-29T08:14:00.794Z,73.9
2023-04-29T08:15:00.745Z,73.3
2023-04-29T08:16:00.835Z,73.3
2023-04-29T08:17:00.716Z,74.6
2023-04-29T08:18:00.715Z,74.2
2023-04-29T08:19:00.723Z,73.9
2023-04-29T08:20:00.910Z,72.3
2023-04-29T08:21:01.092Z,72
2023-04-29T08:22:00.743Z,72.6
2023-04-29T08:23:00.751Z,73
2023-04-29T08:24:00.911Z,72
2023-04-29T08:25:00.811Z,72
2023-04-29T08:26:00.701Z,72.7
2023-04-29T08:27:00.767Z,71.4
2023-04-29T08:28:00.715Z,72.4
2023-04-29T08:29:00.817Z,71.4
2023-04-29T08:30:00.831Z,71.1
2023-04-29T08:31:00.763Z,71.5
2023-04-29T08:32:00.850Z,70.8
2023-04-29T08:33:00.883Z,71.5
2023-04-29T08:34:00.745Z,71.2
2023-04-29T08:35:00.756Z,70.9
2023-04-29T08:36:00.766Z,70.3
2023-04-29T08:37:00.807Z,67.4
2023-04-29T08:38:00.720Z,67.8
2023-04-29T08:39:00.740Z,67.2
2023-04-29T08:40:01.064Z,65.2
2023-04-29T08:41:00.805Z,65.5
2023-04-29T08:42:00.723Z,65.2
2023-04-29T08:43:01.727Z,65.9
2023-04-29T08:44:00.875Z,65.8
2023-04-29T08:45:00.758Z,66.1
2023-04-29T08:46:00.787Z,66.1
2023-04-29T08:47:00.714Z,67.1
2023-04-29T08:48:00.928Z,67.4
2023-04-29T08:49:00.713Z,65.8
2023-04-29T08:50:00.788Z,67
2023-04-29T08:51:00.730Z,67.7
2023-04-29T08:52:00.727Z,67
2023-04-29T08:53:00.725Z,66.7
2023-04-29T08:54:00.741Z,67
2023-04-29T08:55:00.765Z,68.3
2023-04-29T08:56:00.913Z,68.3
2023-04-29T08:57:00.768Z,68.3
2023-04-29T08:58:00.725Z,68.3
2023-04-29T08:59:00.773Z,68.9
2023-04-29T09:00:01.585Z,68.3
2023-04-29T09:01:00.751Z,67.6
2023-04-29T09:02:00.747Z,68.2
2023-04-29T09:03:00.821Z,68.2
2023-04-29T09:04:00.974Z,68.2
2023-04-29T09:05:00.798Z,68.9
2023-04-29T09:06:00.759Z,68.2
2023-04-29T09:07:00.763Z,69.5
2023-04-29T09:08:00.728Z,68.8
2023-04-29T09:09:00.748Z,68.9
2023-04-29T09:10:00.834Z,68.9
2023-04-29T09:11:00.772Z,68.9
2023-04-29T09:12:00.776Z,68.6
2023-04-29T09:13:00.738Z,68.9
2023-04-29T09:14:00.819Z,68.9
2023-04-29T09:15:00.850Z,68.2
2023-04-29T09:16:00.785Z,68.2
2023-04-29T09:17:00.773Z,66.6
2023-04-29T09:18:00.898Z,66.3
2023-04-29T09:19:00.750Z,67.6
2023-04-29T09:20:00.884Z,67.9
2023-04-29T09:21:00.764Z,68.2
2023-04-29T09:22:00.845Z,68.8
2023-04-29T09:23:00.848Z,68.8
2023-04-29T09:24:00.753Z,69.1
2023-04-29T09:25:00.754Z,69.1
2023-04-29T09:26:00.749Z,69.4
2023-04-29T09:27:00.771Z,70.1
2023-04-29T09:28:00.766Z,70.7
2023-04-29T09:29:00.831Z,69.4
2023-04-29T09:30:00.897Z,70.4
2023-04-29T09:31:00.758Z,69.8
2023-04-29T09:32:01.078Z,68.9
2023-04-29T09:33:00.788Z,68.9
2023-04-29T09:34:00.770Z,67.6
2023-04-29T09:35:00.770Z,66.3
2023-04-29T09:36:00.866Z,66.7
2023-04-29T09:37:00.846Z,66
2023-04-29T09:38:00.830Z,65.4
2023-04-29T09:39:00.767Z,66.1
2023-04-29T09:40:00.962Z,69
2023-04-29T09:41:02.381Z,68.3
2023-04-29T09:42:00.816Z,67.7
2023-04-29T09:43:00.772Z,67.1
2023-04-29T09:44:00.868Z,64.6
2023-04-29T09:45:00.889Z,65.9
2023-04-29T09:46:00.866Z,65.5
2023-04-29T09:47:00.788Z,64
2023-04-29T09:48:00.889Z,62.7
2023-04-29T09:49:00.786Z,64.3
2023-04-29T09:50:00.873Z,64.6
2023-04-29T09:51:00.860Z,62.7
2023-04-29T09:52:00.804Z,63.3
2023-04-29T09:53:00.851Z,63.3
2023-04-29T09:54:01.915Z,63.4
2023-04-29T09:55:00.897Z,63
2023-04-29T09:56:00.789Z,61.8
2023-04-29T09:57:00.820Z,62.1
2023-04-29T09:58:00.820Z,62.7
2023-04-29T09:59:00.824Z,62.7
2023-04-29T10:00:01.308Z,62.1
2023-04-29T10:01:00.940Z,61.5
2023-04-29T10:02:00.898Z,61.5
2023-04-29T10:03:00.960Z,60.8
2023-04-29T10:04:00.843Z,60.2
2023-04-29T10:05:00.928Z,60.5
2023-04-29T10:06:00.931Z,62.2
2023-04-29T10:07:00.868Z,60.2
2023-04-29T10:08:00.817Z,60.2
2023-04-29T10:09:00.844Z,61.5
2023-04-29T10:10:00.939Z,61.5
2023-04-29T10:11:00.904Z,60.9
2023-04-29T10:12:00.834Z,60.9
2023-04-29T10:13:00.858Z,60.3
2023-04-29T10:14:00.869Z,59
2023-04-29T10:15:00.890Z,57.7
2023-04-29T10:16:01.014Z,58
2023-04-29T10:17:00.909Z,59.6
2023-04-29T10:18:00.853Z,60.3
2023-04-29T10:19:00.997Z,59.7
2023-04-29T10:20:01.051Z,59
2023-04-29T10:21:00.850Z,56.5
2023-04-29T10:22:00.867Z,54.8
2023-04-29T10:23:00.877Z,57.1
2023-04-29T10:24:00.903Z,58.1
2023-04-29T10:25:01.038Z,57.1
2023-04-29T10:26:00.934Z,57.7
2023-04-29T10:27:00.910Z,55.2
2023-04-29T10:28:00.940Z,53.9
2023-04-29T10:29:00.894Z,53.5
2023-04-29T10:30:01.063Z,55.4
2023-04-29T10:31:00.919Z,56.1
2023-04-29T10:32:00.915Z,56.7
2023-04-29T10:33:01.874Z,57
2023-04-29T10:34:00.961Z,56.3
2023-04-29T10:35:00.940Z,57.9
2023-04-29T10:36:00.908Z,56.6
2023-04-29T10:37:00.939Z,57.3
2023-04-29T10:38:00.894Z,57.6
2023-04-29T10:39:00.887Z,57.6
2023-04-29T10:40:01.035Z,58.2
2023-04-29T10:41:00.920Z,59.2
2023-04-29T10:42:00.945Z,58.2
2023-04-29T10:43:00.908Z,58.5
2023-04-29T10:44:03.616Z,59.5
2023-04-29T10:45:01.010Z,60.1
2023-04-29T10:46:00.869Z,60.8
2023-04-29T10:47:00.952Z,60.8
2023-04-29T10:48:00.970Z,60.2
2023-04-29T10:49:00.883Z,60.8
2023-04-29T10:50:01.096Z,59.5
2023-04-29T10:51:00.929Z,58.9
2023-04-29T10:52:00.938Z,58.9
2023-04-29T10:53:00.864Z,59.9
2023-04-29T10:54:00.893Z,59.6
2023-04-29T10:55:00.983Z,58.3
2023-04-29T10:56:00.916Z,58.3
2023-04-29T10:57:00.902Z,58.3
2023-04-29T10:58:00.927Z,57.7
2023-04-29T10:59:00.923Z,57
2023-04-29T11:00:01.490Z,57
2023-04-29T11:01:00.974Z,56.7
2023-04-29T11:02:00.870Z,56.7
2023-04-29T11:03:01.004Z,55.7
2023-04-29T11:04:00.958Z,57
2023-04-29T11:05:01.073Z,57
2023-04-29T11:06:00.936Z,58
2023-04-29T11:08:00.857Z,57.6
2023-04-29T11:09:00.895Z,58.9
2023-04-29T11:10:01.036Z,58.9
2023-04-29T11:11:00.877Z,59.2
2023-04-29T11:12:00.885Z,59.2
2023-04-29T11:13:00.925Z,58.9
2023-04-29T11:14:00.929Z,57.6
2023-04-29T11:15:01.007Z,58.2
2023-04-29T11:16:00.910Z,57.3
2023-04-29T11:17:00.884Z,57.6
2023-04-29T11:18:00.985Z,56.9
2023-04-29T11:19:01.036Z,56.9
2023-04-29T11:20:01.077Z,56.3
2023-04-29T11:21:00.885Z,56.3
2023-04-29T11:22:00.886Z,57.5
2023-04-29T11:23:00.884Z,58.2
2023-04-29T11:24:00.890Z,58.8
2023-04-29T11:25:00.986Z,56.9
2023-04-29T11:26:00.881Z,57.5
2023-04-29T11:27:00.887Z,56.9
2023-04-29T11:28:00.884Z,56.6
2023-04-29T11:29:00.997Z,58.5
2023-04-29T11:30:01.181Z,59.5
2023-04-29T11:31:00.969Z,59.5
2023-04-29T11:32:00.920Z,57.6
2023-04-29T11:33:01.302Z,56.3
2023-04-29T11:34:00.894Z,55
2023-04-29T11:35:00.968Z,55
2023-04-29T11:36:00.906Z,55
2023-04-29T11:37:00.893Z,55.9
2023-04-29T11:38:00.999Z,55.3
2023-04-29T11:39:00.908Z,55.3
2023-04-29T11:40:01.170Z,55.6
2023-04-29T11:41:00.939Z,54.9
2023-04-29T11:42:00.916Z,54.3
2023-04-29T11:43:00.900Z,55.6
2023-04-29T11:44:01.064Z,56.8
2023-04-29T11:45:01.179Z,55.9
2023-04-29T11:46:01.114Z,54.9
2023-04-29T11:47:00.962Z,54.6
2023-04-29T11:48:01.012Z,55.3
2023-04-29T11:49:01.043Z,54.3
2023-04-29T11:50:01.153Z,54.3
2023-04-29T11:51:00.877Z,54.3
2023-04-29T11:52:00.880Z,55.6
2023-04-29T11:53:00.831Z,55.3
2023-04-29T11:54:00.752Z,54.9
2023-04-29T11:55:00.919Z,54.9
2023-04-29T11:56:00.698Z,54.9
2023-04-29T11:57:00.668Z,54.9
2023-04-29T11:58:00.609Z,55
2023-04-29T11:59:00.588Z,56.9
2023-04-29T12:00:01.187Z,58.2
2023-04-29T12:01:00.545Z,56.9
2023-04-29T12:02:00.621Z,55.7
2023-04-29T12:03:00.721Z,54.7
2023-04-29T12:04:00.753Z,54.4
2023-04-29T12:05:01.353Z,53.8
2023-04-29T12:06:00.497Z,55.1
2023-04-29T12:07:00.575Z,53.1
2023-04-29T12:08:00.516Z,54.4
2023-04-29T12:09:00.507Z,53.8
2023-04-29T12:10:01.669Z,52.5
2023-04-29T12:11:00.499Z,52.2
2023-04-29T12:12:00.508Z,52.5
2023-04-29T12:13:00.556Z,52.5
2023-04-29T12:14:00.513Z,51.2
2023-04-29T12:15:00.553Z,52.9
2023-04-29T12:16:00.520Z,51.6
2023-04-29T12:17:00.502Z,49.7
2023-04-29T12:18:00.518Z,50
2023-04-29T12:19:00.525Z,49.4
2023-04-29T12:20:00.598Z,47.4
2023-04-29T12:21:00.500Z,49.7
2023-04-29T12:22:00.653Z,49
2023-04-29T12:23:00.533Z,48.7
2023-04-29T12:24:00.524Z,50.6
2023-04-29T12:25:00.585Z,50.6
2023-04-29T12:26:00.508Z,50
2023-04-29T12:27:00.509Z,49.9
2023-04-29T12:28:00.645Z,51.2
2023-04-29T12:29:00.507Z,51.9
2023-04-29T12:30:00.582Z,51.9
2023-04-29T12:31:00.586Z,52.5
2023-04-29T12:32:00.770Z,51.9
2023-04-29T12:33:00.554Z,50.6
2023-04-29T12:34:00.606Z,50.9
2023-04-29T12:35:00.552Z,50.6
2023-04-29T12:36:00.524Z,52.5
2023-04-29T12:37:00.537Z,51.3
2023-04-29T12:38:00.613Z,50.9
2023-04-29T12:39:00.546Z,50.6
2023-04-29T12:40:00.588Z,50.9
2023-04-29T12:41:00.510Z,50.6
2023-04-29T12:42:00.519Z,52.5
2023-04-29T12:43:00.604Z,50.3
2023-04-29T12:44:00.533Z,48.7
2023-04-29T12:45:00.601Z,50.3
2023-04-29T12:46:00.539Z,50.3
2023-04-29T12:47:00.610Z,50.6
2023-04-29T12:48:00.583Z,50.6
2023-04-29T12:49:00.550Z,50.6
2023-04-29T12:50:00.565Z,50.6
2023-04-29T12:51:00.522Z,50.3
2023-04-29T12:52:00.580Z,49.3
2023-04-29T12:53:00.559Z,50.3
2023-04-29T12:54:00.555Z,50
2023-04-29T12:55:00.643Z,50
2023-04-29T12:56:00.527Z,50.3
2023-04-29T12:57:00.610Z,49.4
2023-04-29T12:58:01.372Z,50.3
2023-04-29T12:59:00.551Z,47.4
2023-04-29T13:00:00.610Z,49.4
2023-04-29T13:01:00.723Z,48.1
2023-04-29T13:02:01.569Z,49.4
2023-04-29T13:03:00.716Z,47.8
2023-04-29T13:04:00.653Z,48.1
2023-04-29T13:05:00.698Z,46.2
2023-04-29T13:06:00.551Z,47.5
2023-04-29T13:07:00.643Z,47.2
2023-04-29T13:08:00.551Z,47.5
2023-04-29T13:09:00.549Z,47.8
2023-04-29T13:10:00.884Z,47.5
2023-04-29T13:11:00.546Z,47.5
2023-04-29T13:12:00.623Z,47.2
2023-04-29T13:13:00.630Z,45.9
2023-04-29T13:14:00.605Z,45.2
2023-04-29T13:15:00.598Z,46.2
2023-04-29T13:16:00.674Z,47.5
2023-04-29T13:17:01.136Z,45.5
2023-04-29T13:18:00.611Z,45.5
2023-04-29T13:19:16.897Z,47.2
2023-04-29T13:20:00.570Z,47.8
2023-04-29T13:21:02.551Z,47.8
2023-04-29T13:22:00.653Z,46.9
2023-04-29T13:23:00.569Z,43.6
2023-04-29T13:24:00.585Z,45.9